createdAt,value
2022-10-22T00:08:32.079Z,132.23
2022-10-22T00:18:35.507Z,119.53
2022-10-22T00:28:40.606Z,117.87
2022-10-22T00:38:44.736Z,119.90
2022-10-22T00:48:49.386Z,114.90
2022-10-22T00:58:57.587Z,116.37
2022-10-22T01:09:14.243Z,120.63
2022-10-22T01:19:37.491Z,105.63
2022-10-22T01:29:46.834Z,107.53
2022-10-22T01:39:51.951Z,105.10
2022-10-22T01:50:32.435Z,102.83
2022-10-22T02:00:39.830Z,104.23
2022-10-22T02:10:48.062Z,100.60
2022-10-22T02:20:52.510Z,96.03
2022-10-22T02:31:04.459Z,100.03
2022-10-22T02:41:08.085Z,101.87
2022-10-22T02:51:12.704Z,95.43
2022-10-22T03:01:16.323Z,94.40
2022-10-22T03:11:21.064Z,97.30
2022-10-22T03:21:31.748Z,99.20
2022-10-22T03:31:36.359Z,97.53
2022-10-22T03:41:39.757Z,95.27
2022-10-22T03:51:44.479Z,94.13
2022-10-22T04:01:47.783Z,96.40
2022-10-22T04:11:52.449Z,95.87
2022-10-22T04:21:55.672Z,91.23
2022-10-22T04:32:00.288Z,90.60
2022-10-22T04:42:03.955Z,95.33
2022-10-22T04:52:08.666Z,98.20
2022-10-22T05:02:11.883Z,92.57
2022-10-22T05:12:16.618Z,92.13
2022-10-22T05:22:19.871Z,94.23
2022-10-22T05:32:24.470Z,92.40
2022-10-22T05:42:27.711Z,95.17
2022-10-22T05:52:32.297Z,97.20
2022-10-22T06:02:35.580Z,92.47
2022-10-22T06:12:40.421Z,97.87
2022-10-22T06:22:44.003Z,100.47
2022-10-22T06:32:48.756Z,104.17
2022-10-22T06:42:51.966Z,105.80
2022-10-22T06:52:56.576Z,108.53
2022-10-22T07:02:59.960Z,103.87
2022-10-22T07:13:04.573Z,110.23
2022-10-22T07:23:07.879Z,112.63
2022-10-22T07:33:13.316Z,105.97
2022-10-22T07:43:16.638Z,113.10
2022-10-22T07:53:22.303Z,111.30
2022-10-22T08:03:25.533Z,106.80
2022-10-22T08:13:31.553Z,116.73
2022-10-22T08:23:35.553Z,113.37
2022-10-22T08:33:41.019Z,118.10
2022-10-22T08:44:12.451Z,122.00
2022-10-22T08:54:28.810Z,100.17
2022-10-22T09:04:39.029Z,103.97
2022-10-22T09:14:43.943Z,97.10
2022-10-22T09:24:49.581Z,100.97
2022-10-22T09:34:58.604Z,100.53
2022-10-22T09:45:01.983Z,104.07
2022-10-22T09:55:16.164Z,101.57
2022-10-22T10:05:24.476Z,97.60
2022-10-22T10:15:37.567Z,97.73
2022-10-22T10:25:49.665Z,100.63
2022-10-22T10:36:05.256Z,108.43
2022-10-22T10:46:24.224Z,97.63
2022-10-22T10:56:39.398Z,106.30
2022-10-22T11:06:44.985Z,107.57
2022-10-22T11:16:55.096Z,108.80
2022-10-22T11:27:05.735Z,116.50
2022-10-22T11:37:15.169Z,112.87
2022-10-22T11:47:22.249Z,124.00
2022-10-22T11:57:38.057Z,121.63
2022-10-22T12:07:57.144Z,104.83
2022-10-22T12:18:06.612Z,105.67
2022-10-22T12:28:13.840Z,126.57
2022-10-22T12:38:22.573Z,121.90
2022-10-22T12:48:29.415Z,128.90
2022-10-22T12:58:40.333Z,124.53
2022-10-22T13:08:43.689Z,122.67
2022-10-22T13:18:49.763Z,127.70
2022-10-22T13:28:55.534Z,129.37
2022-10-22T13:39:01.280Z,113.30
2022-10-22T13:49:06.259Z,113.70
2022-10-22T13:59:11.702Z,127.27
2022-10-22T14:09:17.143Z,128.73
2022-10-22T14:19:21.811Z,128.80
2022-10-22T14:29:25.224Z,125.80
2022-10-22T14:39:29.867Z,117.47
2022-10-22T14:49:33.176Z,117.40
2022-10-22T14:59:38.004Z,115.17
2022-10-22T15:09:42.279Z,119.13
2022-10-22T15:19:47.230Z,119.90
2022-10-22T15:29:50.515Z,123.23
2022-10-22T15:39:55.178Z,122.57
2022-10-22T15:49:58.450Z,125.27
2022-10-22T16:00:03.400Z,126.20
2022-10-22T16:10:15.514Z,128.07
2022-10-22T16:20:20.387Z,130.30
2022-10-22T16:30:23.623Z,131.73
2022-10-22T16:40:29.230Z,133.17
2022-10-22T16:50:32.615Z,139.40
2022-10-22T17:00:38.336Z,146.43
2022-10-22T17:10:41.596Z,147.97
2022-10-22T17:20:46.329Z,161.03
2022-10-22T17:30:49.619Z,168.13
2022-10-22T17:40:54.487Z,153.80
2022-10-22T17:50:59.260Z,143.63
2022-10-22T18:01:04.718Z,146.77
2022-10-22T18:11:09.361Z,147.30
2022-10-22T18:21:14.698Z,143.03
2022-10-22T18:31:20.978Z,145.47
2022-10-22T18:41:26.587Z,140.93
2022-10-22T18:51:31.723Z,116.67
2022-10-22T19:01:36.381Z,110.50
2022-10-22T19:11:39.755Z,106.03
2022-10-22T19:21:45.770Z,104.47
2022-10-22T19:31:51.064Z,109.07
2022-10-22T19:41:55.942Z,108.33
2022-10-22T19:51:59.271Z,116.40
2022-10-22T20:02:03.938Z,122.60
2022-10-22T20:12:07.889Z,121.30
2022-10-22T20:22:16.291Z,114.70
2022-10-22T20:32:24.212Z,112.53
2022-10-22T20:42:28.813Z,107.83
2022-10-22T20:52:32.468Z,105.83
2022-10-22T21:02:37.744Z,112.77
2022-10-22T21:12:42.695Z,113.97
2022-10-22T21:22:48.722Z,112.23
2022-10-22T21:32:56.891Z,116.10
2022-10-22T21:43:01.492Z,110.80
2022-10-22T21:53:04.876Z,100.47
2022-10-22T22:03:09.872Z,105.40
2022-10-22T22:13:13.281Z,107.97
2022-10-22T22:23:17.886Z,104.80
2022-10-22T22:33:21.207Z,101.50
2022-10-22T22:43:25.773Z,106.67
2022-10-22T22:53:29.678Z,102.80
2022-10-22T23:03:34.297Z,103.40
2022-10-22T23:13:37.998Z,104.53
2022-10-22T23:23:45.353Z,99.03
2022-10-22T23:33:49.486Z,100.33
2022-10-22T23:43:54.086Z,99.73
2022-10-22T23:53:59.930Z,97.47
